Time;durP1;ratioP1;P1;durP2;ratioP2;P2;SDS_P1;SDS_P2;PMS_P1;PMS_P2;Temp;Humidity;BMP_temperature;BMP_pressure;BME280_temperature;BME280_humidity;BME280_pressure;Samples;Min_cycle;Max_cycle;Signal;HPM_P1;HPM_P2
2022/10/16 00:00:23;;;;;;;;;;;13.80;99.90;;;;;;5084013;28;19912;-88
2022/10/16 00:02:48;;;;;;;;;;;13.80;99.90;;;;;;5070253;28;20048;-88
2022/10/16 00:05:14;;;;;;;;;;;13.80;99.90;;;;;;5089123;28;19919;-89
2022/10/16 00:07:40;;;;;;;;;;;13.80;99.90;;;;;;5070241;28;19914;-88
2022/10/16 00:10:06;;;;;;;;;;;13.70;99.90;;;;;;5056231;28;20030;-89
2022/10/16 00:12:31;;;;;;;;;;;13.70;99.90;;;;;;5084177;28;20511;-88
2022/10/16 00:14:57;;;;;;;;;;;13.80;99.90;;;;;;5075355;28;19908;-89
2022/10/16 00:17:22;;;;;;;;;;;13.80;99.90;;;;;;5083111;28;20159;-89
2022/10/16 00:19:48;;;;;;;;;;;13.70;99.90;;;;;;5069009;28;20049;-88
2022/10/16 00:22:13;;;;;;;;;;;13.70;99.90;;;;;;5054805;28;20039;-89
2022/10/16 00:24:39;;;;;;;;;;;13.80;99.90;;;;;;5083382;28;19911;-89
2022/10/16 00:27:05;;;;;;;;;;;13.70;99.90;;;;;;5057034;28;20028;-89
2022/10/16 00:29:30;;;;;;;;;;;13.80;99.90;;;;;;5084440;28;20024;-89
2022/10/16 00:31:56;;;;;;;;;;;13.80;99.90;;;;;;5067450;28;20057;-89
2022/10/16 00:34:22;;;;;;;;;;;13.80;99.90;;;;;;5083896;28;19919;-88
2022/10/16 00:37:09;;;;;;;;;;;13.80;99.90;;;;;;5063165;28;20078;-88
2022/10/16 00:39:35;;;;;;;;;;;13.80;99.90;;;;;;5071510;28;19963;-88
2022/10/16 00:42:00;;;;;;;;;;;13.80;99.90;;;;;;5102515;28;20511;-88
2022/10/16 00:44:46;;;;;;;;;;;13.80;99.90;;;;;;5070671;28;20038;-88
2022/10/16 00:47:18;;;;;;;;;;;13.80;99.90;;;;;;5075880;28;19971;-88
2022/10/16 00:49:44;;;;;;;;;;;13.80;99.90;;;;;;5075428;28;19912;-88
2022/10/16 00:52:10;;;;;;;;;;;13.80;99.90;;;;;;5068819;28;20417;-88
2022/10/16 00:54:35;;;;;;;;;;;13.80;99.90;;;;;;5094035;28;20382;-88
2022/10/16 00:57:03;;;;;;;;;;;13.70;99.90;;;;;;5061958;28;20031;-89
2022/10/16 01:02:34;;;;;;;;;;;13.80;99.90;;;;;;5081711;28;20512;-88
2022/10/16 01:05:00;;;;;;;;;;;13.70;99.90;;;;;;5067825;28;19915;-89
2022/10/16 01:07:41;;;;;;;;;;;13.70;99.90;;;;;;5073650;28;20023;-88
2022/10/16 01:10:35;;;;;;;;;;;13.70;99.90;;;;;;5076683;28;20089;-88
2022/10/16 01:13:03;;;;;;;;;;;13.70;99.90;;;;;;5073248;28;19909;-89
2022/10/16 01:15:47;;;;;;;;;;;13.70;99.90;;;;;;5083632;28;20048;-89
2022/10/16 01:18:12;;;;;;;;;;;13.70;99.90;;;;;;5055379;28;20408;-88
2022/10/16 01:20:43;;;;;;;;;;;13.80;99.90;;;;;;5071326;28;20024;-87
2022/10/16 01:23:23;;;;;;;;;;;13.80;99.90;;;;;;5081781;28;19915;-88
2022/10/16 01:26:08;;;;;;;;;;;13.80;99.90;;;;;;5075296;28;20360;-88
2022/10/16 01:28:41;;;;;;;;;;;13.70;99.90;;;;;;5063358;28;19908;-88
2022/10/16 01:31:14;;;;;;;;;;;13.70;99.90;;;;;;5061274;28;20048;-88
2022/10/16 01:33:43;;;;;;;;;;;13.80;99.90;;;;;;5062732;28;19909;-88
2022/10/16 01:36:11;;;;;;;;;;;13.80;99.90;;;;;;5062692;28;20003;-88
2022/10/16 01:38:38;;;;;;;;;;;13.80;99.90;;;;;;5088783;28;20043;-88
2022/10/16 01:41:09;;;;;;;;;;;13.80;99.90;;;;;;5079841;28;20064;-89
2022/10/16 01:43:41;;;;;;;;;;;13.80;99.90;;;;;;5075255;28;20031;-88
2022/10/16 01:46:07;;;;;;;;;;;13.90;99.90;;;;;;5075290;28;19932;-88
2022/10/16 01:48:34;;;;;;;;;;;13.90;99.90;;;;;;5079879;28;19907;-88
2022/10/16 01:51:10;;;;;;;;;;;13.80;99.90;;;;;;5071472;28;20027;-88
2022/10/16 01:53:36;;;;;;;;;;;13.80;99.90;;;;;;5089694;28;19973;-88
2022/10/16 01:56:03;;;;;;;;;;;13.80;99.90;;;;;;5077996;28;19908;-88
2022/10/16 01:58:34;;;;;;;;;;;13.80;99.90;;;;;;5087672;28;19939;-88
2022/10/16 02:01:01;;;;;;;;;;;13.80;99.90;;;;;;5091579;28;20314;-88
2022/10/16 02:03:27;;;;;;;;;;;13.80;99.90;;;;;;5072685;28;19960;-89
2022/10/16 02:05:54;;;;;;;;;;;13.80;99.90;;;;;;5086976;28;20055;-88
2022/10/16 02:08:20;;;;;;;;;;;13.80;99.90;;;;;;5056463;28;20031;-88
2022/10/16 02:11:04;;;;;;;;;;;13.90;99.90;;;;;;5088353;28;20023;-88
2022/10/16 02:14:07;;;;;;;;;;;13.90;99.90;;;;;;5074081;28;20449;-88
2022/10/16 02:16:43;;;;;;;;;;;13.90;99.90;;;;;;5065355;28;19916;-88
2022/10/16 02:19:11;;;;;;;;;;;13.80;99.90;;;;;;5087699;28;20030;-88
2022/10/16 02:21:40;;;;;;;;;;;13.90;99.90;;;;;;5074434;28;20162;-88
2022/10/16 02:24:23;;;;;;;;;;;13.80;99.90;;;;;;5075549;28;20067;-87
2022/10/16 02:27:02;;;;;;;;;;;13.80;99.90;;;;;;5076397;28;20062;-88
2022/10/16 02:29:27;;;;;;;;;;;13.80;99.90;;;;;;5066444;28;20020;-88
2022/10/16 02:32:04;;;;;;;;;;;13.80;99.90;;;;;;5076669;28;20114;-88
2022/10/16 02:34:31;;;;;;;;;;;13.80;99.90;;;;;;5101032;27;20035;-88
2022/10/16 02:36:58;;;;;;;;;;;13.80;99.90;;;;;;5064202;28;20070;-88
2022/10/16 02:39:24;;;;;;;;;;;13.80;99.90;;;;;;5065151;28;20036;-88
2022/10/16 02:41:49;;;;;;;;;;;13.80;99.90;;;;;;5061441;28;20546;-88
2022/10/16 02:47:44;;;;;;;;;;;13.80;99.90;;;;;;5070125;28;20083;-88
2022/10/16 02:50:28;;;;;;;;;;;13.80;99.90;;;;;;5067582;28;20024;-88
2022/10/16 02:52:53;;;;;;;;;;;13.80;99.90;;;;;;5083577;28;20028;-87
2022/10/16 02:55:19;;;;;;;;;;;13.80;99.90;;;;;;5074043;28;20081;-88
2022/10/16 02:57:44;;;;;;;;;;;13.80;99.90;;;;;;5075448;28;20044;-88
2022/10/16 03:00:12;;;;;;;;;;;13.80;99.90;;;;;;5083563;28;20027;-88
2022/10/16 03:02:37;;;;;;;;;;;13.80;99.90;;;;;;5097508;28;20017;-87
2022/10/16 03:05:03;;;;;;;;;;;13.80;99.90;;;;;;5084182;28;20039;-88
2022/10/16 03:07:29;;;;;;;;;;;13.80;99.90;;;;;;5081721;28;20475;-88
2022/10/16 03:09:55;;;;;;;;;;;13.80;99.90;;;;;;5077020;28;20119;-87
2022/10/16 03:12:21;;;;;;;;;;;13.80;99.90;;;;;;5065613;28;20020;-88
2022/10/16 03:14:47;;;;;;;;;;;13.80;99.90;;;;;;5061573;28;20491;-88
2022/10/16 03:17:12;;;;;;;;;;;13.80;99.90;;;;;;5083182;28;20034;-88
2022/10/16 03:19:38;;;;;;;;;;;13.80;99.90;;;;;;5078306;28;20557;-88
2022/10/16 03:22:04;;;;;;;;;;;13.80;99.90;;;;;;5074990;28;20024;-87
2022/10/16 03:24:29;;;;;;;;;;;13.70;99.90;;;;;;5074380;28;20024;-88
2022/10/16 03:26:55;;;;;;;;;;;13.70;99.90;;;;;;5076591;28;20466;-88
2022/10/16 03:29:21;;;;;;;;;;;13.70;99.90;;;;;;5082335;28;19908;-88
2022/10/16 03:31:48;;;;;;;;;;;13.70;99.90;;;;;;5060974;28;20480;-88
2022/10/16 03:34:13;;;;;;;;;;;13.80;99.90;;;;;;5065776;28;20030;-88
2022/10/16 03:36:39;;;;;;;;;;;13.80;99.90;;;;;;5078204;28;20107;-88
2022/10/16 03:39:05;;;;;;;;;;;13.70;99.90;;;;;;5074809;28;20024;-88
2022/10/16 03:41:30;;;;;;;;;;;13.70;99.90;;;;;;5074150;28;20024;-87
2022/10/16 03:43:56;;;;;;;;;;;13.80;99.90;;;;;;5076122;28;20034;-88
2022/10/16 03:46:21;;;;;;;;;;;13.70;99.90;;;;;;5081474;28;19908;-88
2022/10/16 03:48:47;;;;;;;;;;;13.80;99.90;;;;;;5077686;28;19909;-88
2022/10/16 03:51:12;;;;;;;;;;;13.80;99.90;;;;;;5066986;28;20082;-88
2022/10/16 03:53:38;;;;;;;;;;;13.80;99.90;;;;;;5087165;28;20069;-88
2022/10/16 03:56:04;;;;;;;;;;;13.80;99.90;;;;;;5075186;28;20024;-88
2022/10/16 03:58:29;;;;;;;;;;;13.80;99.90;;;;;;5084992;28;19929;-88
2022/10/16 04:00:55;;;;;;;;;;;13.80;99.90;;;;;;5068149;28;20370;-88
2022/10/16 04:03:21;;;;;;;;;;;13.80;99.90;;;;;;5077404;28;20042;-88
2022/10/16 04:05:46;;;;;;;;;;;13.70;99.90;;;;;;5084835;28;20028;-88
2022/10/16 04:08:12;;;;;;;;;;;13.70;99.90;;;;;;5071779;28;20051;-88
2022/10/16 04:10:37;;;;;;;;;;;13.60;99.90;;;;;;5084152;28;20020;-88
2022/10/16 04:13:03;;;;;;;;;;;13.50;99.90;;;;;;5058010;28;20036;-87
2022/10/16 04:15:29;;;;;;;;;;;13.50;99.90;;;;;;5082067;28;20032;-88
2022/10/16 04:17:54;;;;;;;;;;;13.50;99.90;;;;;;5067368;28;20032;-88
2022/10/16 04:20:20;;;;;;;;;;;13.50;99.90;;;;;;5069709;28;20003;-88
2022/10/16 04:22:45;;;;;;;;;;;13.40;99.90;;;;;;5083202;28;19938;-88
2022/10/16 04:25:11;;;;;;;;;;;13.50;99.90;;;;;;5071318;28;20480;-87
2022/10/16 04:27:37;;;;;;;;;;;13.50;99.90;;;;;;5083497;28;20072;-88
2022/10/16 04:30:03;;;;;;;;;;;13.60;99.90;;;;;;5058018;28;19912;-88
2022/10/16 04:32:28;;;;;;;;;;;13.60;99.90;;;;;;5084044;28;20437;-88
2022/10/16 04:34:54;;;;;;;;;;;13.70;99.90;;;;;;5077912;28;19915;-88
2022/10/16 04:37:23;;;;;;;;;;;13.70;99.90;;;;;;5069608;28;20451;-87
2022/10/16 04:39:48;;;;;;;;;;;13.70;99.90;;;;;;5083527;28;19908;-88
2022/10/16 04:42:14;;;;;;;;;;;13.70;99.90;;;;;;5071181;28;20024;-88
2022/10/16 04:44:39;;;;;;;;;;;13.60;99.90;;;;;;5084307;28;20057;-88
2022/10/16 04:47:05;;;;;;;;;;;13.60;99.90;;;;;;5073653;28;20035;-88
2022/10/16 04:49:31;;;;;;;;;;;13.70;99.90;;;;;;5083923;28;19907;-87
2022/10/16 04:51:56;;;;;;;;;;;13.70;99.90;;;;;;5067965;28;20024;-88
2022/10/16 04:54:22;;;;;;;;;;;13.60;99.90;;;;;;5079146;28;19928;-87
2022/10/16 04:56:50;;;;;;;;;;;13.60;99.90;;;;;;5064773;28;20043;-88
2022/10/16 04:59:16;;;;;;;;;;;13.60;99.90;;;;;;5062023;28;20115;-88
2022/10/16 05:01:41;;;;;;;;;;;13.60;99.90;;;;;;5074206;28;19998;-88
2022/10/16 05:04:07;;;;;;;;;;;13.60;99.90;;;;;;5088195;28;20025;-88
2022/10/16 05:06:33;;;;;;;;;;;13.70;99.90;;;;;;5056810;28;20017;-87
2022/10/16 05:08:58;;;;;;;;;;;13.70;99.90;;;;;;5076704;28;20367;-88
2022/10/16 05:11:24;;;;;;;;;;;13.70;99.90;;;;;;5082087;28;19947;-88
2022/10/16 05:13:49;;;;;;;;;;;13.70;99.90;;;;;;5078268;28;20499;-87
2022/10/16 05:16:15;;;;;;;;;;;13.70;99.90;;;;;;5084156;28;20036;-88
2022/10/16 05:18:41;;;;;;;;;;;13.70;99.90;;;;;;5078056;28;20037;-88
2022/10/16 05:21:06;;;;;;;;;;;13.70;99.90;;;;;;5079403;28;20059;-87
2022/10/16 05:23:33;;;;;;;;;;;13.70;99.90;;;;;;5077855;28;20018;-87
2022/10/16 05:26:32;;;;;;;;;;;13.60;99.90;;;;;;5080444;28;20027;-87
2022/10/16 05:28:58;;;;;;;;;;;13.60;99.90;;;;;;5071162;28;20002;-88
2022/10/16 05:31:24;;;;;;;;;;;13.70;99.90;;;;;;5077717;28;20070;-89
2022/10/16 05:33:49;;;;;;;;;;;13.70;99.90;;;;;;5083100;28;19912;-87
2022/10/16 05:36:15;;;;;;;;;;;13.70;99.90;;;;;;5076888;28;20030;-88
2022/10/16 05:38:40;;;;;;;;;;;13.70;99.90;;;;;;5075208;28;20070;-88
2022/10/16 05:41:06;;;;;;;;;;;13.70;99.90;;;;;;5076092;28;19908;-88
2022/10/16 05:43:32;;;;;;;;;;;13.70;99.90;;;;;;5077305;28;20039;-88
2022/10/16 05:45:58;;;;;;;;;;;13.70;99.90;;;;;;5050756;28;19926;-88
2022/10/16 05:48:24;;;;;;;;;;;13.70;99.90;;;;;;5067255;28;20011;-89
2022/10/16 05:50:57;;;;;;;;;;;13.70;99.90;;;;;;5086197;28;20044;-88
2022/10/16 05:53:25;;;;;;;;;;;13.70;99.90;;;;;;5085411;28;20500;-88
2022/10/16 05:55:54;;;;;;;;;;;13.70;99.90;;;;;;5058962;28;20059;-89
2022/10/16 05:58:20;;;;;;;;;;;13.60;99.90;;;;;;5067234;28;20044;-88
2022/10/16 06:00:53;;;;;;;;;;;13.60;99.90;;;;;;5072608;28;20081;-89
2022/10/16 06:03:19;;;;;;;;;;;13.60;99.90;;;;;;5075530;28;20062;-88
2022/10/16 06:05:45;;;;;;;;;;;13.60;99.90;;;;;;5084121;28;20467;-89
2022/10/16 06:08:10;;;;;;;;;;;13.50;99.90;;;;;;5069615;28;20104;-89
2022/10/16 06:10:36;;;;;;;;;;;13.50;99.90;;;;;;5062870;28;20027;-89
2022/10/16 06:13:01;;;;;;;;;;;13.50;99.90;;;;;;5069439;28;20030;-90
2022/10/16 06:15:27;;;;;;;;;;;13.50;99.90;;;;;;5055331;28;20023;-89
2022/10/16 06:17:52;;;;;;;;;;;13.50;99.90;;;;;;5087744;28;19912;-89
2022/10/16 06:20:18;;;;;;;;;;;13.50;99.90;;;;;;5070239;28;20611;-89
2022/10/16 06:22:44;;;;;;;;;;;13.50;99.90;;;;;;5075631;28;19908;-89
2022/10/16 06:25:09;;;;;;;;;;;13.50;99.90;;;;;;5063428;28;20046;-90
2022/10/16 06:27:35;;;;;;;;;;;13.50;99.90;;;;;;5067435;28;20457;-89
2022/10/16 06:30:00;;;;;;;;;;;13.50;99.90;;;;;;5066761;28;20332;-88
2022/10/16 06:32:27;;;;;;;;;;;13.50;99.90;;;;;;5092508;28;19909;-89
2022/10/16 06:34:52;;;;;;;;;;;13.50;99.90;;;;;;5077198;28;20035;-88
2022/10/16 06:37:18;;;;;;;;;;;13.50;99.90;;;;;;5080947;28;20021;-88
2022/10/16 06:39:44;;;;;;;;;;;13.40;99.90;;;;;;5075011;28;20640;-88
2022/10/16 06:42:09;;;;;;;;;;;13.50;99.90;;;;;;5085459;28;20070;-88
2022/10/16 06:44:35;;;;;;;;;;;13.50;99.90;;;;;;5076532;28;20487;-89
2022/10/16 06:47:01;;;;;;;;;;;13.40;99.90;;;;;;5065937;28;19969;-88
2022/10/16 06:49:28;;;;;;;;;;;13.50;99.90;;;;;;5070594;28;20280;-89
2022/10/16 06:51:54;;;;;;;;;;;13.50;99.90;;;;;;5074408;28;20031;-88
2022/10/16 06:54:19;;;;;;;;;;;13.50;99.90;;;;;;5060314;28;20036;-89
2022/10/16 06:56:45;;;;;;;;;;;13.60;99.90;;;;;;5066537;28;20031;-88
2022/10/16 06:59:11;;;;;;;;;;;13.60;99.90;;;;;;5081088;28;19916;-89
2022/10/16 07:01:36;;;;;;;;;;;13.60;99.90;;;;;;5073465;28;20498;-90
2022/10/16 07:04:02;;;;;;;;;;;13.60;99.90;;;;;;5075978;28;20063;-90
2022/10/16 07:06:31;;;;;;;;;;;13.60;99.90;;;;;;5054284;28;20027;-90
2022/10/16 07:08:56;;;;;;;;;;;13.60;99.90;;;;;;5070013;28;20055;-90
2022/10/16 07:11:23;;;;;;;;;;;13.70;99.90;;;;;;5065281;28;20443;-90
2022/10/16 07:13:49;;;;;;;;;;;13.70;99.90;;;;;;5071351;28;20568;-91
2022/10/16 07:16:16;;;;;;;;;;;13.80;99.90;;;;;;5072684;28;20649;-90
2022/10/16 07:18:43;;;;;;;;;;;13.90;99.90;;;;;;5072693;28;20552;-90
2022/10/16 07:21:11;;;;;;;;;;;14.10;99.90;;;;;;5057866;28;20031;-90
2022/10/16 07:23:37;;;;;;;;;;;14.20;99.90;;;;;;5071889;28;20032;-89
2022/10/16 07:26:03;;;;;;;;;;;14.20;99.90;;;;;;5074662;28;20089;-90
2022/10/16 07:28:29;;;;;;;;;;;14.30;99.90;;;;;;5071051;28;20024;-89
2022/10/16 07:30:54;;;;;;;;;;;14.40;99.90;;;;;;5060609;28;19919;-89
2022/10/16 07:33:21;;;;;;;;;;;14.40;99.90;;;;;;5081003;28;19919;-89
2022/10/16 07:35:50;;;;;;;;;;;14.40;99.90;;;;;;5071709;28;19913;-89
2022/10/16 07:38:16;;;;;;;;;;;14.50;99.90;;;;;;5075735;28;20068;-89
2022/10/16 07:40:42;;;;;;;;;;;14.50;99.90;;;;;;5058589;28;20040;-89
2022/10/16 07:43:08;;;;;;;;;;;14.60;99.90;;;;;;5074038;28;19943;-89
2022/10/16 07:45:33;;;;;;;;;;;14.60;99.90;;;;;;5061382;28;20097;-89
2022/10/16 07:47:59;;;;;;;;;;;14.70;99.90;;;;;;5076295;28;20024;-89
2022/10/16 07:50:24;;;;;;;;;;;14.70;99.90;;;;;;5065767;28;20031;-89
2022/10/16 07:52:50;;;;;;;;;;;14.70;99.90;;;;;;5073742;28;20067;-89
2022/10/16 07:55:16;;;;;;;;;;;14.70;99.90;;;;;;5066754;28;20218;-89
2022/10/16 07:57:41;;;;;;;;;;;14.80;99.90;;;;;;5062955;28;20040;-90
2022/10/16 08:00:08;;;;;;;;;;;14.90;99.90;;;;;;5081093;28;20433;-89
2022/10/16 08:02:37;;;;;;;;;;;15.00;99.90;;;;;;5085774;28;20044;-90
2022/10/16 08:05:03;;;;;;;;;;;15.10;99.90;;;;;;5090025;28;20533;-90
2022/10/16 08:07:28;;;;;;;;;;;15.20;99.90;;;;;;5072109;28;20073;-90
2022/10/16 08:09:56;;;;;;;;;;;15.30;99.90;;;;;;5065372;28;20032;-90
2022/10/16 08:12:22;;;;;;;;;;;15.50;99.90;;;;;;5084405;28;20051;-91
2022/10/16 08:14:48;;;;;;;;;;;15.70;99.90;;;;;;5068581;28;20028;-91
2022/10/16 08:17:13;;;;;;;;;;;15.70;99.90;;;;;;5054376;28;20035;-90
2022/10/16 08:19:39;;;;;;;;;;;15.70;99.90;;;;;;5083510;28;20027;-91
2022/10/16 08:22:05;;;;;;;;;;;15.70;99.90;;;;;;5056527;28;20032;-91
2022/10/16 08:24:32;;;;;;;3.50;3.00;;;15.80;99.90;;;;;;5083631;28;20070;-91
2022/10/16 08:26:57;;;;;;;4.70;2.72;;;15.90;99.90;;;;;;5061893;28;20021;-91
2022/10/16 08:29:23;;;;;;;6.40;2.55;;;16.00;99.90;;;;;;5083116;28;20023;-90
2022/10/16 08:31:49;;;;;;;6.72;2.70;;;16.20;99.90;;;;;;5064928;28;20034;-90
2022/10/16 08:34:15;;;;;;;5.47;2.40;;;16.30;99.90;;;;;;5053687;28;20029;-89
2022/10/16 08:36:41;;;;;;;7.25;2.65;;;16.60;99.90;;;;;;5083458;28;20077;-91
2022/10/16 08:39:43;;;;;;;9.18;3.50;;;16.50;99.90;;;;;;5056133;28;20039;-91
2022/10/16 08:42:29;;;;;;;9.35;3.30;;;16.40;99.90;;;;;;5058182;28;20518;-89
2022/10/16 08:45:19;;;;;;;9.43;2.92;;;16.50;99.90;;;;;;5094381;28;20031;-90
2022/10/16 08:48:21;;;;;;;6.47;2.80;;;16.20;99.90;;;;;;5081645;28;20476;-89
2022/10/16 08:50:47;;;;;;;;;;;15.80;99.90;;;;;;5043067;28;20503;-89
2022/10/16 08:53:41;;;;;;;7.05;2.75;;;15.70;99.90;;;;;;5086091;28;19916;-90
2022/10/16 08:56:07;;;;;;;5.45;2.78;;;15.70;99.90;;;;;;5077439;28;20679;-90
2022/10/16 08:58:33;;;;;;;8.05;3.22;;;15.80;99.90;;;;;;5074557;28;20028;-90
2022/10/16 09:01:01;;;;;;;6.53;3.00;;;15.90;99.90;;;;;;5079528;28;20044;-90
2022/10/16 09:04:18;;;;;;;4.65;2.63;;;16.20;99.90;;;;;;5122362;27;20027;-89
2022/10/16 09:06:55;;;;;;;8.85;2.60;;;16.10;99.90;;;;;;5039306;28;20080;-90
2022/10/16 09:09:46;;;;;;;9.32;3.75;;;16.10;99.90;;;;;;5079368;28;20096;-89
2022/10/16 09:12:15;;;;;;;5.82;2.72;;;16.10;99.90;;;;;;5061923;28;20114;-90
2022/10/16 09:14:58;;;;;;;9.10;2.90;;;16.00;99.90;;;;;;5061494;28;20364;-90
2022/10/16 09:17:49;;;;;;;3.95;2.50;;;16.20;99.90;;;;;;5083990;28;20032;-90
2022/10/16 09:20:34;;;;;;;5.22;2.20;;;16.10;99.90;;;;;;5055007;28;20040;-89
2022/10/16 09:23:17;;;;;;;8.85;2.65;;;16.20;99.90;;;;;;5060811;28;20035;-90
2022/10/16 09:25:47;;;;;;;7.15;2.70;;;16.60;99.90;;;;;;5075918;28;20483;-90
2022/10/16 09:28:13;;;;;;;3.00;1.70;;;17.20;99.90;;;;;;5068303;28;20029;-89
2022/10/16 09:30:39;;;;;;;2.78;1.80;;;17.90;99.90;;;;;;5065237;28;20036;-90
2022/10/16 09:33:06;;;;;;;4.82;2.00;;;18.60;99.90;;;;;;5072063;28;20035;-90
2022/10/16 09:35:49;;;;;;;2.78;1.45;;;19.70;99.90;;;;;;5058075;28;20029;-90
2022/10/16 09:38:28;;;;;;;3.38;1.45;;;20.30;99.90;;;;;;5052796;28;20538;-90
2022/10/16 09:40:56;;;;;;;2.92;2.40;;;20.50;99.90;;;;;;5067418;28;20047;-90
2022/10/16 09:43:42;;;;;;;5.97;2.00;;;20.20;99.90;;;;;;5056304;28;20029;-91
2022/10/16 09:46:22;;;;;;;6.35;1.98;;;19.00;99.90;;;;;;5078234;28;20036;-90
2022/10/16 09:48:50;;;;;;;4.35;1.58;;;18.40;99.90;;;;;;5073291;28;20035;-90
2022/10/16 09:52:08;;;;;;;5.03;1.90;;;17.90;99.90;;;;;;5065066;28;20029;-89
2022/10/16 09:54:34;;;;;;;3.83;1.58;;;17.80;99.90;;;;;;5049906;28;20082;-90
2022/10/16 09:57:13;;;;;;;9.25;1.80;;;18.10;99.90;;;;;;5078253;28;20028;-90
2022/10/16 09:59:50;;;;;;;4.50;1.70;;;19.00;99.90;;;;;;5050649;28;20131;-90
2022/10/16 10:02:19;;;;;;;2.53;1.40;;;19.70;99.90;;;;;;5056986;28;20035;-90
2022/10/16 10:04:54;;;;;;;3.78;1.38;;;20.40;99.90;;;;;;5061595;28;20078;-90
2022/10/16 10:07:38;;;;;;;2.97;1.20;;;20.90;99.90;;;;;;5061900;28;20031;-87
2022/10/16 10:10:06;;;;;;;2.17;1.88;;;21.90;99.90;;;;;;5054639;28;20020;-88
2022/10/16 10:12:34;;;;;;;5.80;1.80;;;22.60;99.90;;;;;;5055185;28;20020;-87
2022/10/16 10:15:10;;;;;;;5.78;1.50;;;23.20;99.90;;;;;;5068925;28;20031;-87
2022/10/16 10:17:57;;;;;;;7.50;1.33;;;23.10;99.90;;;;;;5060395;28;20099;-87
2022/10/16 10:20:25;;;;;;;9.13;3.28;;;22.70;99.90;;;;;;5065404;28;20683;-87
2022/10/16 10:22:51;;;;;;;5.00;2.10;;;22.50;99.90;;;;;;5062207;28;20025;-86
2022/10/16 10:25:54;;;;;;;5.63;2.03;;;22.20;99.90;;;;;;5066293;28;20368;-89
2022/10/16 10:28:29;;;;;;;3.70;1.58;;;22.40;99.90;;;;;;5071560;28;20025;-89
2022/10/16 10:31:12;;;;;;;4.95;2.50;;;22.40;99.90;;;;;;5069454;28;20040;-89
2022/10/16 10:33:55;;;;;;;2.65;1.85;;;22.40;99.90;;;;;;5061459;28;20036;-90
2022/10/16 10:36:41;;;;;;;10.77;2.10;;;22.30;99.90;;;;;;5066368;28;20108;-89
2022/10/16 10:39:25;;;;;;;9.05;1.80;;;22.50;99.90;;;;;;5057599;28;20032;-89
2022/10/16 10:41:57;;;;;;;5.43;1.20;;;22.50;99.90;;;;;;5082675;28;20037;-89
2022/10/16 10:44:55;;;;;;;7.28;2.42;;;22.50;99.90;;;;;;5080574;28;20035;-88
2022/10/16 10:47:41;;;;;;;5.30;2.17;;;22.70;99.90;;;;;;5081418;28;20068;-89
2022/10/16 10:50:31;;;;;;;3.25;1.67;;;22.40;99.90;;;;;;5071153;28;20079;-88
2022/10/16 10:53:07;;;;;;;4.78;1.70;;;22.10;99.90;;;;;;5081115;28;20020;-89
2022/10/16 10:55:54;;;;;;;7.25;1.40;;;21.80;99.90;;;;;;5063802;28;20097;-88
2022/10/16 10:58:46;;;;;;;5.25;1.75;;;21.10;99.90;;;;;;5060014;28;20040;-87
2022/10/16 11:01:17;;;;;;;5.22;1.65;;;20.20;99.90;;;;;;5055392;28;20052;-88
2022/10/16 11:03:55;;;;;;;8.00;2.35;;;19.80;99.90;;;;;;5036535;28;20033;-87
2022/10/16 11:06:27;;;;;;;4.45;1.70;;;19.50;99.90;;;;;;5057442;28;20039;-87
2022/10/16 11:09:18;;;;;;;7.30;2.75;;;19.30;99.90;;;;;;5062215;28;20034;-88
2022/10/16 11:12:01;;;;;;;9.05;2.58;;;19.30;99.90;;;;;;5072298;28;20511;-88
2022/10/16 11:14:43;;;;;;;8.80;1.95;;;19.60;99.90;;;;;;5061220;28;20122;-88
2022/10/16 11:17:13;;;;;;;9.40;1.65;;;20.50;99.90;;;;;;5095828;28;20035;-88
2022/10/16 11:20:05;;;;;;;7.35;1.88;;;21.20;99.90;;;;;;5041934;28;20025;-89
2022/10/16 11:22:45;;;;;;;7.20;1.90;;;21.70;99.90;;;;;;5062595;28;20032;-89
2022/10/16 11:25:32;;;;;;;5.72;2.03;;;22.30;99.90;;;;;;5065128;28;20096;-89
2022/10/16 11:28:03;;;;;;;6.43;1.88;;;22.90;99.90;;;;;;5065548;28;20020;-88
2022/10/16 11:30:33;;;;;;;5.68;1.90;;;23.20;99.90;;;;;;5096087;28;20112;-87
2022/10/16 11:33:37;;;;;;;3.58;1.63;;;23.60;99.90;;;;;;5062477;28;20107;-89
2022/10/16 11:36:28;;;;;;;11.68;1.80;;;23.30;99.90;;;;;;5059474;28;20103;-89
2022/10/16 11:39:03;;;;;;;4.50;1.75;;;23.70;99.90;;;;;;5062195;28;20040;-89
2022/10/16 11:41:44;;;;;;;3.58;1.67;;;24.20;99.90;;;;;;5071470;28;20025;-87
2022/10/16 11:44:16;;;;;;;5.63;2.00;;;24.60;99.90;;;;;;5062612;28;20032;-89
2022/10/16 11:46:51;;;;;;;4.82;1.90;;;24.80;99.90;;;;;;5055139;28;20036;-87
2022/10/16 11:49:22;;;;;;;6.63;2.28;;;24.40;99.90;;;;;;5070589;28;20116;-88
2022/10/16 11:52:03;;;;;;;5.93;1.60;;;24.30;99.90;;;;;;5039523;28;20021;-87
2022/10/16 11:54:39;;;;;;;8.52;1.83;;;24.30;99.90;;;;;;5063900;28;20060;-87
2022/10/16 11:57:40;;;;;;;7.28;1.70;;;24.00;99.90;;;;;;5093251;28;20039;-88
2022/10/16 12:00:19;;;;;;;11.57;1.80;;;23.80;99.90;;;;;;5043759;28;20025;-88
2022/10/16 12:03:13;;;;;;;5.22;2.08;;;23.40;99.90;;;;;;5055210;28;20099;-86
2022/10/16 12:05:42;;;;;;;7.70;1.80;;;23.40;99.90;;;;;;5064425;28;20063;-87
2022/10/16 12:08:11;;;;;;;7.72;2.10;;;23.70;99.90;;;;;;5049617;28;20357;-86
2022/10/16 12:10:46;;;;;;;6.80;1.92;;;23.80;99.90;;;;;;5046884;28;20028;-88
2022/10/16 12:13:32;;;;;;;5.95;1.80;;;23.50;99.90;;;;;;5049037;28;20742;-88
2022/10/16 12:16:11;;;;;;;4.72;1.67;;;23.60;99.90;;;;;;5050827;28;20031;-89
2022/10/16 12:18:38;;;;;;;4.65;1.67;;;23.40;99.90;;;;;;5068361;28;20071;-88
2022/10/16 12:21:07;;;;;;;5.50;1.88;;;23.60;99.90;;;;;;5071083;28;20035;-88
2022/10/16 12:23:54;;;;;;;3.30;1.73;;;23.70;99.90;;;;;;5054565;28;20697;-88
2022/10/16 12:26:29;;;;;;;5.75;1.98;;;23.70;99.90;;;;;;5053590;28;20030;-88
2022/10/16 12:28:57;;;;;;;3.83;1.52;;;23.50;99.90;;;;;;5071547;28;20483;-88
2022/10/16 12:31:24;;;;;;;5.97;1.90;;;22.80;99.90;;;;;;5053415;28;20171;-88
2022/10/16 12:34:01;;;;;;;7.03;2.13;;;22.60;99.90;;;;;;5045513;28;20086;-88
2022/10/16 12:36:33;;;;;;;4.85;2.05;;;22.80;99.90;;;;;;5046003;28;20661;-89
2022/10/16 12:38:59;;;;;;;8.00;2.10;;;23.00;99.90;;;;;;5068120;28;20028;-89
2022/10/16 12:41:39;;;;;;;3.67;1.60;;;22.70;99.90;;;;;;5076769;28;20028;-89
2022/10/16 12:44:21;;;;;;;4.15;2.05;;;22.50;99.90;;;;;;5055337;28;20113;-89
2022/10/16 12:46:46;;;;;;;4.95;2.15;;;22.00;99.90;;;;;;5058008;28;20028;-88
2022/10/16 12:49:12;;;;;;;6.70;1.88;;;21.70;99.90;;;;;;5074750;28;20486;-89
2022/10/16 12:51:38;;;;;;;8.05;2.08;;;21.50;99.90;;;;;;5069692;28;20107;-89
2022/10/16 12:54:03;;;;;;;5.07;2.15;;;21.20;99.90;;;;;;5066079;28;20551;-89
2022/10/16 12:56:55;;;;;;;11.30;2.40;;;20.90;99.90;;;;;;5069420;28;20053;-89
2022/10/16 12:59:55;;;;;;;5.22;1.73;;;20.80;99.90;;;;;;5057264;28;20028;-88
2022/10/16 13:02:30;;;;;;;6.63;1.98;;;20.70;99.90;;;;;;5058720;28;20158;-88
2022/10/16 13:05:17;;;;;;;6.65;2.20;;;20.80;99.90;;;;;;5077189;28;20032;-89
2022/10/16 13:08:21;;;;;;;7.63;2.15;;;21.00;99.90;;;;;;5058467;28;20394;-88
2022/10/16 13:11:24;;;;;;;3.58;2.10;;;20.90;99.90;;;;;;5083271;28;20160;-89
2022/10/16 13:14:27;;;;;;;5.43;2.22;;;21.00;99.90;;;;;;5054726;28;20046;-88
2022/10/16 13:17:20;;;;;;;3.35;1.90;;;20.80;99.90;;;;;;5061693;28;20040;-89
2022/10/16 13:20:15;;;;;;;5.78;2.10;;;20.80;99.90;;;;;;5056057;28;20028;-89
2022/10/16 13:22:56;;;;;;;6.65;2.15;;;20.70;99.90;;;;;;5076419;28;20059;-89
2022/10/16 13:25:38;;;;;;;9.45;2.38;;;20.70;99.90;;;;;;5068159;28;20033;-89
2022/10/16 13:28:09;;;;;;;6.30;1.75;;;20.70;99.90;;;;;;5056862;28;20069;-88
2022/10/16 13:30:51;;;;;;;4.03;1.83;;;20.70;99.90;;;;;;5070180;28;20048;-89
2022/10/16 13:33:30;;;;;;;6.90;2.28;;;20.60;99.90;;;;;;5082208;28;20570;-89
2022/10/16 13:35:57;;;;;;;4.15;2.05;;;20.30;99.90;;;;;;5076748;28;20031;-89
2022/10/16 13:38:28;;;;;;;4.85;1.92;;;20.30;99.90;;;;;;5073801;28;20441;-89
2022/10/16 13:40:56;;;;;;;4.90;2.03;;;20.20;99.90;;;;;;5080697;28;20474;-88
2022/10/16 13:43:31;;;;;;;12.32;2.53;;;20.00;99.90;;;;;;5061386;28;20028;-88
2022/10/16 13:46:03;;;;;;;4.93;1.98;;;19.90;99.90;;;;;;5057418;28;20032;-89
2022/10/16 13:48:29;;;;;;;5.28;1.92;;;19.80;99.90;;;;;;5078654;28;20062;-88
2022/10/16 13:51:22;;;;;;;4.75;2.15;;;19.80;99.90;;;;;;5080619;28;20019;-89
2022/10/16 13:53:48;;;;;;;8.02;2.70;;;19.70;99.90;;;;;;5069011;28;20059;-88
2022/10/16 13:56:19;;;;;;;6.28;2.30;;;19.50;99.90;;;;;;5074695;28;20032;-88
2022/10/16 13:58:45;;;;;;;;;;;19.40;99.90;;;;;;5088513;28;20032;-88
2022/10/16 14:01:22;;;;;;;6.20;2.08;;;19.30;99.90;;;;;;5059281;28;19919;-89
2022/10/16 14:03:49;;;;;;;5.78;2.08;;;19.30;99.90;;;;;;5089935;28;20045;-88
2022/10/16 14:06:21;;;;;;;2.30;2.10;;;19.10;99.90;;;;;;5060308;28;20032;-88
2022/10/16 14:08:53;;;;;;;8.30;2.10;;;19.00;99.90;;;;;;5066936;28;20031;-88
2022/10/16 14:11:23;;;;;;;2.15;1.75;;;18.90;99.90;;;;;;5065853;28;20021;-88